»·PEaware :: XRO525 KAUN-KBOK

XRO525 :: KAUN-KBOK

FLIGHT INFORMATION

Flight Status: Arrived
Operator: Unknown
More flights by this operator :: More flights under this callsign
Pilot: Kim B. (19519)
Aircraft: EMBRAER BANDEIRANTE
(E110)
More flights by this aircraft type
Origin: KAUN Auburn Mun
United States
Destination: KBOK Brookings State
United States
More flights between these airports :: More routes between these airports
Route: ILA V200 ENI V27 CEC
File this flight plan on PilotEdge
Remarks:
Altitude:
(Current/Filed)
8,000ft
Speed:
(Current/Filed)
180kts
Departed: 14-Oct-18 03:13 PM
Arrived: 14-Oct-18 04:58 PM
Distance/Time
Traveled:
238nm/1:45
Distance/Time
To Go:
Arrived

Flight Plot

Page will automatically refresh every two minutes.

Flight plan parsing failed; only flown route is shown


Map Options




Map Legend


Flown Route
Filed Route
Departure Airport
Arrival Airport
Navaid (VOR, NDB)
Fix

Horizontal Profiles

Position Reports

Time Latitude Longitude Heading Altitude Ground
Speed
14-Oct-18 14:46 38.954230 -121.076926 264 1515ft 0kts
14-Oct-18 14:47 38.954230 -121.076926 264 1515ft 0kts
14-Oct-18 14:48 38.954230 -121.076926 264 1515ft 0kts
14-Oct-18 14:49 38.954230 -121.076926 264 1515ft 0kts
14-Oct-18 14:50 38.954230 -121.076926 264 1515ft 0kts
14-Oct-18 14:51 38.954230 -121.076926 264 1515ft 0kts
14-Oct-18 14:52 38.954230 -121.076926 264 1515ft 0kts
14-Oct-18 14:53 38.954230 -121.076926 264 1515ft 0kts
14-Oct-18 14:54 38.954230 -121.076926 264 1515ft 0kts
14-Oct-18 14:55 38.954230 -121.076926 264 1515ft 0kts
14-Oct-18 14:56 38.954230 -121.076926 264 1515ft 0kts
14-Oct-18 14:57 38.954230 -121.076926 264 1515ft 0kts
14-Oct-18 14:58 38.954230 -121.076926 264 1515ft 0kts
14-Oct-18 14:59 38.954230 -121.076926 264 1515ft 0kts
14-Oct-18 15:00 38.954230 -121.076926 264 1515ft 0kts
14-Oct-18 15:01 38.954230 -121.076926 264 1515ft 0kts
14-Oct-18 15:02 38.954230 -121.076926 264 1515ft 0kts
14-Oct-18 15:03 38.954230 -121.076926 264 1515ft 0kts
14-Oct-18 15:04 38.954230 -121.076926 264 1515ft 0kts
14-Oct-18 15:05 38.954230 -121.076926 264 1515ft 0kts
14-Oct-18 15:06 38.954230 -121.076926 264 1515ft 0kts
14-Oct-18 15:07 38.954230 -121.076926 264 1515ft 0kts
14-Oct-18 15:08 38.954230 -121.076926 264 1515ft 0kts
14-Oct-18 15:09 38.954249 -121.078408 262 1515ft 9kts
14-Oct-18 15:10 38.954654 -121.078284 84 1515ft 0kts
14-Oct-18 15:11 38.954654 -121.078284 84 1515ft 0kts
14-Oct-18 15:12 38.954894 -121.075734 52 1515ft 0kts
14-Oct-18 15:13 38.954910 -121.075707 52 1515ft 0kts
14-Oct-18 15:14 38.955060 -121.075564 18 1515ft 6kts
14-Oct-18 15:15 38.952245 -121.104698 260 1685ft 164kts
14-Oct-18 15:16 38.963974 -121.168058 286 2180ft 192kts
14-Oct-18 15:17 38.973875 -121.232873 281 3530ft 177kts
14-Oct-18 15:18 38.981205 -121.290709 283 4978ft 159kts
14-Oct-18 15:19 38.988173 -121.346283 284 6215ft 158kts
14-Oct-18 15:20 38.994939 -121.400472 285 7341ft 159kts
14-Oct-18 15:21 39.002966 -121.452766 338 8246ft 149kts
14-Oct-18 15:22 39.011794 -121.502782 278 7989ft 210kts
14-Oct-18 15:23 39.019602 -121.589114 285 7989ft 207kts
14-Oct-18 15:24 39.026867 -121.649806 284 7994ft 207kts
14-Oct-18 15:25 39.035248 -121.720295 283 7996ft 207kts
14-Oct-18 15:26 39.045252 -121.805315 284 7980ft 191kts
14-Oct-18 15:27 39.051376 -121.857454 285 7992ft 170kts
14-Oct-18 15:28 39.058340 -121.916697 285 7993ft 166kts
14-Oct-18 15:29 39.065209 -121.975561 286 7986ft 165kts
14-Oct-18 15:30 39.071000 -122.034347 277 7985ft 168kts
14-Oct-18 15:31 39.070560 -122.096034 275 8001ft 188kts
14-Oct-18 15:32 39.069848 -122.166404 275 7986ft 201kts
14-Oct-18 15:33 39.069072 -122.238354 274 7987ft 200kts
14-Oct-18 15:34 39.068278 -122.309188 273 7985ft 196kts
14-Oct-18 15:35 39.067470 -122.377915 272 7986ft 193kts
14-Oct-18 15:36 39.066927 -122.424220 268 8000ft 207kts
14-Oct-18 15:37 39.066032 -122.492221 268 7990ft 214kts
14-Oct-18 15:38 39.065043 -122.565805 268 7989ft 216kts
14-Oct-18 15:39 39.064003 -122.640044 268 7989ft 216kts
14-Oct-18 15:40 39.062908 -122.714898 268 7984ft 216kts
14-Oct-18 15:41 39.061749 -122.790747 269 7981ft 216kts
14-Oct-18 15:42 39.060320 -122.880200 269 7978ft 217kts
14-Oct-18 15:43 39.059031 -122.957717 269 7978ft 216kts
14-Oct-18 15:44 39.057934 -123.021218 269 7974ft 209kts
14-Oct-18 15:45 39.056632 -123.094306 269 7978ft 204kts
14-Oct-18 15:46 39.055302 -123.166326 269 7979ft 203kts
14-Oct-18 15:47 39.053931 -123.238039 269 7979ft 203kts
14-Oct-18 15:48 39.080754 -123.289814 339 7987ft 191kts
14-Oct-18 15:49 39.127458 -123.317222 339 7981ft 192kts
14-Oct-18 15:50 39.175472 -123.345138 339 7980ft 193kts
14-Oct-18 15:51 39.224185 -123.373449 339 7980ft 193kts
14-Oct-18 15:52 39.272582 -123.401609 339 7980ft 193kts
14-Oct-18 15:53 39.320995 -123.429820 339 7980ft 193kts
14-Oct-18 15:54 39.368826 -123.457734 339 7980ft 193kts
14-Oct-18 15:55 39.417189 -123.486002 339 7980ft 193kts
14-Oct-18 15:56 39.466065 -123.514613 339 7980ft 193kts
14-Oct-18 15:57 39.514623 -123.543082 339 7980ft 193kts
14-Oct-18 15:58 39.563465 -123.571761 339 7980ft 193kts
14-Oct-18 15:59 39.612291 -123.600472 339 7980ft 193kts
14-Oct-18 16:00 39.661095 -123.629217 339 7980ft 193kts
14-Oct-18 16:01 39.709689 -123.657883 339 7979ft 193kts
14-Oct-18 16:02 39.758609 -123.686784 338 7988ft 194kts
14-Oct-18 16:03 39.807525 -123.715726 338 8001ft 196kts
14-Oct-18 16:04 39.855530 -123.744165 334 8012ft 182kts
14-Oct-18 16:05 39.900887 -123.771118 335 8028ft 178kts
14-Oct-18 16:06 39.945662 -123.797736 336 8037ft 177kts
14-Oct-18 16:07 39.997046 -123.828332 337 8060ft 177kts
14-Oct-18 16:08 40.034378 -123.850580 337 8059ft 179kts
14-Oct-18 16:09 40.080055 -123.877852 337 8015ft 179kts
14-Oct-18 16:10 40.124945 -123.904691 337 8015ft 179kts
14-Oct-18 16:11 40.170416 -123.931919 337 8014ft 180kts
14-Oct-18 16:12 40.215665 -123.959053 337 8014ft 180kts
14-Oct-18 16:13 40.261149 -123.986368 337 8013ft 180kts
14-Oct-18 16:14 40.306682 -124.013754 337 8013ft 180kts
14-Oct-18 16:15 40.352172 -124.041154 337 8013ft 180kts
14-Oct-18 16:16 40.397497 -124.068497 337 8013ft 180kts
14-Oct-18 16:17 40.443016 -124.095996 337 8013ft 180kts
14-Oct-18 16:18 40.488319 -124.123407 337 8013ft 180kts
14-Oct-18 16:19 40.533757 -124.150941 337 8012ft 180kts
14-Oct-18 16:20 40.579006 -124.178406 337 8018ft 179kts
14-Oct-18 16:21 40.626568 -124.207308 336 6760ft 206kts
14-Oct-18 16:22 40.678641 -124.234597 356 5248ft 218kts
14-Oct-18 16:23 40.732547 -124.234929 358 4311ft 205kts
14-Oct-18 16:24 40.789210 -124.235224 358 4047ft 193kts
14-Oct-18 16:25 40.829047 -124.235443 358 4065ft 190kts
14-Oct-18 16:26 40.872310 -124.235685 358 4067ft 190kts
14-Oct-18 16:27 40.918859 -124.235947 358 4067ft 190kts
14-Oct-18 16:28 40.967303 -124.236221 358 4067ft 190kts
14-Oct-18 16:29 41.018199 -124.236510 358 4067ft 190kts
14-Oct-18 16:30 41.070151 -124.236805 358 4067ft 190kts
14-Oct-18 16:31 41.119375 -124.237083 358 4068ft 190kts
14-Oct-18 16:32 41.168333 -124.237359 358 4068ft 190kts
14-Oct-18 16:33 41.217725 -124.237640 358 4068ft 190kts
14-Oct-18 16:34 41.265954 -124.237915 358 4068ft 190kts
14-Oct-18 16:35 41.308991 -124.238152 358 4066ft 191kts
14-Oct-18 16:36 41.334236 -124.238293 357 4064ft 192kts
14-Oct-18 16:37 41.367694 -124.238517 359 4062ft 198kts
14-Oct-18 16:38 41.390839 -124.238648 0 4064ft 201kts
14-Oct-18 16:39 41.421473 -124.238825 0 4061ft 203kts
14-Oct-18 16:40 41.457431 -124.239025 1 4059ft 204kts
14-Oct-18 16:41 41.512123 -124.239326 1 4059ft 204kts
14-Oct-18 16:42 41.568462 -124.239648 1 4059ft 204kts
14-Oct-18 16:43 41.608484 -124.239873 1 4059ft 204kts
14-Oct-18 16:44 41.640996 -124.240056 1 4059ft 204kts
14-Oct-18 16:45 41.664339 -124.240165 359 4002ft 203kts
14-Oct-18 16:46 41.719683 -124.240523 359 3935ft 198kts
14-Oct-18 16:47 41.772461 -124.240693 13 94ft 121kts
14-Oct-18 16:48 41.780585 -124.237654 107 59ft 0kts
14-Oct-18 16:49 41.780585 -124.237654 107 59ft 0kts
14-Oct-18 16:50 41.780575 -124.237628 118 59ft 0kts
14-Oct-18 16:51 41.780090 -124.236828 133 59ft 3kts
14-Oct-18 16:52 41.779149 -124.235519 134 59ft 6kts
14-Oct-18 16:53 41.778285 -124.235581 269 59ft 0kts
14-Oct-18 16:54 41.778285 -124.235581 269 59ft 0kts
14-Oct-18 16:55 41.778285 -124.235581 269 59ft 0kts
14-Oct-18 16:56 41.778285 -124.235581 269 59ft 0kts
14-Oct-18 16:57 41.778285 -124.235581 269 59ft 0kts
14-Oct-18 16:58 41.778285 -124.235581 269 59ft 0kts
14-Oct-18 16:59 41.778285 -124.235581 269 59ft 0kts
14-Oct-18 17:00 42.074694 -124.289663 325 463ft 0kts

Navigation Log

Ident Type
Flight plan parsing failed, navigation log unavailable